Nearby METAR Reports

 

YSRI - Richmond (aus-Af, Australia
Distance from station: SW 65km
Updated: 08/04/2020 09:30
Overcast
Overcast
 Wind from SSW
Wind: SSW 9 km/h
Temperature: 18°C
Dew Point: 16°C
Humidity: 88%
Barometer: 1022 hPa
Clouds: Overcast
Visibility: 10 km
Cloud details: Overcast 457 m
2020/04/07 23:30 YSRI 072330Z AUTO 21005KT 9999 // OVC015 18/16 Q1022
YWLM - Williamtown Arp, Australia
Distance from station: NE 69km
Updated: 08/04/2020 09:30
Mostly cloudy
Mostly cloudy
 Wind from S
Wind: S 15 km/h
Temperature: 20°C
Dew Point: 15°C
Humidity: 73%
Barometer: 1021 hPa
Clouds: Mostly cloudy
Visibility: 10 km
Cloud details: Partly cloudy 579 m
Partly cloudy 2438 m
Mostly cloudy 6401 m
2020/04/07 23:30 YWLM 072330Z 18008KT 9999 SCT019 SCT080 BKN210 20/15 Q1021 FM2330 16012KT 9999 -SHRA SCT025 SCT040
 
YSSY - Sydney Intl Airp, Australia
Distance from station: SSW 77km
Updated: 08/04/2020 09:30
Mostly cloudy
Mostly cloudy
 Wind from SE
Wind: SE 11 km/h
Temperature: 19°C
Dew Point: 14°C
Humidity: 73%
Barometer: 1022 hPa
Clouds: Mostly cloudy
Visibility: 10 km
Cloud details: Few Clouds 457 m
Partly cloudy 914 m
Mostly cloudy 1219 m
2020/04/07 23:30 YSSY 072330Z 13006KT 9999 FEW015 SCT030 BKN040 19/14 Q1022 NOSIG